SAWG/RGL METAR and TAF weather

Enter ICAO airport designator
Station Type Date Time Source
SAWG METAR 2018/12/12 09:00 UTC NOAA

SAWG 120900Z 34009KT CAVOK 12/01 Q1006


Station Type Date Time Source
SAWG Decoded METAR 2018/12/12 09:00 UTC NOAA

Rio Gallegos Aerodrome, Argentina (SAWG) 51-37S 069-17W 19M
Dec 12, 2018 - 04:00 AM EST / 2018.12.12 0900 UTC
Wind: from the NNW (340 degrees) at 10 MPH (9 KT):0
Visibility: greater than 7 mile(s):0
Temperature: 53 F (12 C)
Dew Point: 33 F (1 C)
Relative Humidity: 46%
Pressure (altimeter): 29.71 in. Hg (1006 hPa)
ob: SAWG 120900Z 34009KT CAVOK 12/01 Q1006
cycle: 9

Station Type Date Time Source
SAWG TAF 2018/12/12 06:21 UTC NOAA

TAF TAF SAWG 120500Z 1206/1306 33010KT CAVOK TX21/1220Z TN09/1210Z
BECMG 1213/1215 BKN030
BECMG 1218/1220 07010KT
BECMG 1301/1303 16010KT


Example: see airport list